Time;durP1;ratioP1;P1;durP2;ratioP2;P2;SDS_P1;SDS_P2;PMS_P1;PMS_P2;Temp;Humidity;BMP_temperature;BMP_pressure;BME280_temperature;BME280_humidity;BME280_pressure;Samples;Min_cycle;Max_cycle;Signal;HPM_P1;HPM_P2
2022/03/02 15:52:20;;;;;;;2.52;1.32;;;;;;;-141.83;100.00;119307.58;1679386;84;20892;-62
2022/03/02 15:54:55;;;;;;;5.62;4.70;;;;;;;-141.83;100.00;119307.58;1617125;80;930249;-65
2022/03/02 15:58:03;;;;;;;8.38;5.28;;;;;;;-141.83;100.00;119307.58;1524398;80;984322;-65
2022/03/02 16:00:33;;;;;;;7.53;4.87;;;;;;;0.56;100.00;100625.95;1760929;80;21021;-65
2022/03/02 16:02:59;;;;;;;6.35;5.28;;;;;;;4.41;100.00;99399.52;1755906;80;21565;-66
2022/03/02 16:05:32;;;;;;;7.15;5.78;;;;;;;4.31;100.00;99394.70;1763564;80;21346;-64
2022/03/02 16:08:09;;;;;;;6.92;5.17;;;;;;;4.34;100.00;99390.01;1758652;80;20998;-65
2022/03/02 16:10:38;;;;;;;6.80;5.20;;;;;;;4.37;100.00;99386.27;1746845;80;21451;-65
2022/03/02 16:13:13;;;;;;;7.05;4.60;;;;;;;4.43;100.00;99381.80;1760180;80;21006;-66
2022/03/02 16:15:54;;;;;;;6.65;4.90;;;;;;;4.45;100.00;99381.65;1753216;80;21011;-66
2022/03/02 16:18:32;;;;;;;6.22;4.75;;;;;;;4.49;100.00;99374.66;1763869;80;21173;-66
2022/03/02 16:21:20;;;;;;;5.20;4.33;;;;;;;4.49;97.23;99372.50;1755240;80;21555;-67
2022/03/02 16:23:47;;;;;;;5.33;4.70;;;;;;;4.51;92.19;99369.27;1765796;80;21040;-63
2022/03/02 16:26:16;;;;;;;6.42;5.22;;;;;;;4.54;89.73;99370.30;1763995;80;21066;-66
2022/03/02 16:28:44;;;;;;;5.83;5.22;;;;;;;4.55;88.16;99368.86;1762254;80;21588;-66
2022/03/02 16:31:12;;;;;;;6.45;5.33;;;;;;;4.55;86.99;99368.86;1763549;80;21181;-66
2022/03/02 16:33:40;;;;;;;8.13;5.72;;;;;;;4.61;85.88;99372.76;1754481;80;21565;-64
2022/03/02 16:36:07;;;;;;;6.67;5.50;;;;;;;4.59;84.87;99370.24;1714917;82;20963;-67
2022/03/02 16:38:34;;;;;;;12.07;9.58;;;;;;;4.60;84.06;99365.33;1754753;80;21059;-66
2022/03/02 16:41:00;;;;;;;12.20;8.68;;;;;;;4.62;83.20;99371.77;1755466;80;21042;-67
2022/03/02 16:43:27;;;;;;;10.68;8.43;;;;;;;4.68;82.13;99368.61;1754018;80;21210;-65
2022/03/02 16:45:53;;;;;;;10.25;8.70;;;;;;;4.68;81.27;99367.28;1764963;80;21049;-65
2022/03/02 16:48:21;;;;;;;11.12;7.92;;;;;;;4.70;80.66;99365.34;1751142;80;21098;-67
2022/03/02 16:50:49;;;;;;;9.95;7.55;;;;;;;4.71;80.11;99365.23;1728157;80;21096;-65
2022/03/02 16:53:16;;;;;;;8.40;6.72;;;;;;;4.71;79.59;99363.91;1721870;81;21503;-67
2022/03/02 16:55:43;;;;;;;8.20;6.53;;;;;;;4.75;79.34;99353.91;1715255;81;21137;-68
2022/03/02 16:58:10;;;;;;;6.95;5.75;;;;;;;4.70;79.07;99360.91;1754361;80;21838;-68
2022/03/02 17:00:43;;;;;;;6.83;6.10;;;;;;;4.69;78.75;99356.59;1738757;80;21071;-67
2022/03/02 17:03:16;;;;;;;7.58;6.22;;;;;;;4.66;78.30;99356.89;1741059;80;21118;-64
2022/03/02 17:05:46;;;;;;;8.85;6.22;;;;;;;4.59;78.02;99354.94;1756545;80;20975;-66
2022/03/02 17:08:16;;;;;;;8.15;5.50;;;;;;;4.55;77.80;99357.00;1756622;81;21146;-68
2022/03/02 17:10:44;;;;;;;6.80;5.50;;;;;;;4.49;77.59;99354.90;1749520;80;21489;-66
2022/03/02 17:13:12;;;;;;;8.08;6.22;;;;;;;4.48;77.47;99354.56;1753146;80;20951;-65
2022/03/02 17:15:41;;;;;;;6.80;5.58;;;;;;;4.66;76.53;99352.10;1753518;81;20927;-66
2022/03/02 17:18:08;;;;;;;7.12;6.10;;;;;;;4.68;76.20;99351.00;1750015;81;21577;-66
2022/03/02 17:20:35;;;;;;;8.63;6.12;;;;;;;4.68;75.71;99348.36;1740600;80;21164;-65
2022/03/02 17:23:02;;;;;;;7.37;6.15;;;;;;;4.71;75.29;99342.83;1767717;80;20982;-64
2022/03/02 17:25:29;;;;;;;12.23;6.92;;;;;;;4.66;75.14;99341.09;1753313;80;21477;-64
2022/03/02 17:27:59;;;;;;;7.25;5.92;;;;;;;4.65;74.96;99338.09;1768105;80;21565;-64
2022/03/02 17:30:24;;;;;;;8.18;6.40;;;;;;;4.64;74.81;99343.00;1758233;80;20949;-64
2022/03/02 17:32:54;;;;;;;10.43;7.40;;;;;;;4.61;74.55;99338.50;1763009;81;22262;-62
2022/03/02 17:35:20;;;;;;;9.10;6.75;;;;;;;4.57;74.50;99330.03;1765092;80;20975;-64
2022/03/02 17:37:47;;;;;;;8.43;7.12;;;;;;;4.54;74.62;99330.30;1761299;80;20956;-65
2022/03/02 17:40:13;;;;;;;8.80;7.75;;;;;;;4.55;74.61;99331.97;1764567;80;21012;-67
2022/03/02 17:42:40;;;;;;;9.08;7.28;;;;;;;4.56;74.58;99332.81;1752937;80;21037;-64
2022/03/02 17:45:08;;;;;;;7.65;6.90;;;;;;;4.54;74.45;99322.39;1742892;80;21145;-65
2022/03/02 17:47:36;;;;;;;7.87;7.05;;;;;;;4.53;74.35;99322.06;1747169;80;20962;-64
2022/03/02 17:50:06;;;;;;;7.58;6.28;;;;;;;4.61;74.06;99321.38;1697953;83;20975;-67
2022/03/02 17:52:34;;;;;;;7.12;5.95;;;;;;;4.63;73.77;99311.53;1711343;83;21080;-65
2022/03/02 17:55:00;;;;;;;8.23;6.40;;;;;;;4.62;73.76;99315.13;1723386;82;21522;-66
2022/03/02 17:57:27;;;;;;;7.60;6.30;;;;;;;4.64;73.65;99311.38;1716020;82;21166;-65
2022/03/02 17:59:54;;;;;;;7.45;6.42;;;;;;;4.85;72.92;99312.09;1707214;82;20944;-68
2022/03/02 18:02:20;;;;;;;7.08;5.92;;;;;;;4.69;73.44;99313.12;1721561;82;21138;-65
2022/03/02 18:04:48;;;;;;;6.28;5.55;;;;;;;4.67;73.64;99311.59;1710609;83;21398;-66
2022/03/02 18:07:15;;;;;;;8.13;5.92;;;;;;;4.68;73.60;99317.22;1713467;82;21035;-64
2022/03/02 18:09:43;;;;;;;8.73;6.12;;;;;;;4.68;73.48;99310.62;1715270;82;21506;-64
2022/03/02 18:12:12;;;;;;;7.70;5.80;;;;;;;4.71;73.41;99311.68;1668721;84;21099;-65
2022/03/02 18:14:41;;;;;;;8.23;6.15;;;;;;;4.64;73.67;99307.94;1711131;82;21098;-67
2022/03/02 18:17:11;;;;;;;7.22;6.00;;;;;;;4.66;73.64;99308.63;1667442;84;21099;-66
2022/03/02 18:19:42;;;;;;;6.95;5.75;;;;;;;4.67;73.48;99304.52;1670179;84;21030;-64
2022/03/02 18:22:12;;;;;;;7.90;6.17;;;;;;;4.69;73.95;99303.89;1666694;84;21100;-65
2022/03/02 18:24:41;;;;;;;8.10;6.58;;;;;;;4.78;73.98;99307.03;1704953;82;21102;-64
2022/03/02 18:27:10;;;;;;;7.83;5.97;;;;;;;4.74;73.64;99305.66;1702110;83;21066;-66
2022/03/02 18:29:39;;;;;;;11.88;9.78;;;;;;;4.77;73.38;99305.87;1709550;83;20964;-64
2022/03/02 18:32:08;;;;;;;18.35;12.33;;;;;;;4.78;73.34;99300.92;1711141;83;20963;-66
2022/03/02 18:34:41;;;;;;;12.13;8.93;;;;;;;4.78;73.18;99301.77;1663640;84;21171;-66
2022/03/02 18:37:09;;;;;;;9.58;7.65;;;;;;;4.60;73.85;99296.83;1704986;82;21093;-67
2022/03/02 18:39:38;;;;;;;8.03;6.62;;;;;;;4.58;74.05;99299.25;1712801;83;21008;-66
2022/03/02 18:42:07;;;;;;;8.08;5.97;;;;;;;4.58;74.13;99293.98;1697557;82;21114;-64
2022/03/02 18:44:36;;;;;;;9.48;6.83;;;;;;;4.58;74.13;99299.25;1718908;82;21500;-64
2022/03/02 18:47:08;;;;;;;6.97;6.12;;;;;;;4.54;74.16;99296.05;1715244;83;21088;-66
2022/03/02 18:49:37;;;;;;;9.45;7.65;;;;;;;4.57;74.05;99298.41;1729408;82;21544;-66
2022/03/02 18:52:06;;;;;;;8.68;7.20;;;;;;;4.58;73.92;99290.87;1729167;82;20955;-65
2022/03/02 18:54:38;;;;;;;8.03;6.40;;;;;;;4.57;73.83;99293.14;1735799;82;20989;-66
2022/03/02 18:57:07;;;;;;;9.43;6.92;;;;;;;4.54;74.02;99296.05;1725533;82;21058;-68
2022/03/02 18:59:36;;;;;;;8.33;6.42;;;;;;;4.54;74.02;99292.09;1731311;80;21795;-62
2022/03/02 19:02:06;;;;;;;8.18;6.42;;;;;;;4.52;73.84;99292.72;1730041;82;20895;-66
2022/03/02 19:04:36;;;;;;;8.33;6.33;;;;;;;4.53;73.85;99290.45;1722911;82;20983;-65
2022/03/02 19:07:07;;;;;;;7.45;6.08;;;;;;;4.54;73.79;99285.98;1731353;82;20959;-64
2022/03/02 19:09:37;;;;;;;9.48;6.50;;;;;;;4.52;73.96;99280.87;1716082;82;20895;-67
2022/03/02 19:12:07;;;;;;;8.68;6.20;;;;;;;4.56;73.68;99279.64;1729412;82;21808;-65
2022/03/02 19:14:35;;;;;;;9.03;6.45;;;;;;;4.59;73.61;99279.85;1726413;82;20942;-62
2022/03/02 19:17:04;;;;;;;8.98;6.58;;;;;;;4.60;73.38;99278.38;1736211;82;21614;-64
2022/03/02 19:19:33;;;;;;;8.68;6.40;;;;;;;4.57;73.24;99279.13;1731962;82;21066;-65
2022/03/02 19:22:02;;;;;;;8.05;6.55;;;;;;;4.57;73.27;99279.97;1728702;82;21086;-65
2022/03/02 19:24:31;;;;;;;7.70;6.12;;;;;;;4.59;73.20;99281.98;1736725;82;21148;-64
2022/03/02 19:26:58;;;;;;;7.72;6.47;;;;;;;4.60;72.96;99278.86;1736859;82;20995;-65
2022/03/02 19:29:28;;;;;;;7.97;6.15;;;;;;;4.55;73.02;99274.49;1732216;82;20999;-63
2022/03/02 19:31:55;;;;;;;7.50;6.37;;;;;;;4.56;73.07;99270.42;1739759;80;21537;-63
2022/03/02 19:34:22;;;;;;;6.92;6.03;;;;;;;4.54;73.05;99272.34;1735745;82;21631;-61
2022/03/02 19:36:50;;;;;;;6.78;5.72;;;;;;;4.53;73.12;99268.05;1725644;80;21154;-65
2022/03/02 19:42:05;;;;;;;8.55;6.42;;;;;;;4.48;72.98;99258.42;1709950;82;24288;-64
2022/03/02 19:44:32;;;;;;;9.50;6.08;;;;;;;4.49;72.86;99257.42;1731442;82;20943;-64
2022/03/02 19:46:59;;;;;;;6.33;5.72;;;;;;;4.51;72.84;99249.41;1737176;82;20943;-63
2022/03/02 19:49:32;;;;;;;6.85;6.15;;;;;;;4.50;72.90;99247.73;1746705;80;21474;-64
2022/03/02 19:51:59;;;;;;;8.25;6.40;;;;;;;4.48;73.02;99247.88;1747116;80;21486;-64
2022/03/02 19:54:28;;;;;;;9.53;7.05;;;;;;;4.44;73.17;99242.52;1699580;84;20931;-61
2022/03/02 19:56:55;;;;;;;9.18;7.60;;;;;;;4.47;73.06;99245.36;1763253;80;21443;-64
2022/03/02 19:59:22;;;;;;;10.00;7.83;;;;;;;4.48;73.01;99245.72;1753263;80;21492;-61
2022/03/02 20:01:51;;;;;;;10.25;8.18;;;;;;;4.45;73.06;99241.56;1754748;80;21165;-61
2022/03/02 20:04:18;;;;;;;11.73;9.73;;;;;;;4.42;73.15;99235.25;1756740;80;21030;-63
2022/03/02 20:06:48;;;;;;;10.98;8.95;;;;;;;4.43;73.15;99234.30;1748744;80;21034;-62
2022/03/02 20:09:15;;;;;;;10.23;7.28;;;;;;;4.44;73.15;99233.30;1755116;80;21085;-64
2022/03/02 20:11:43;;;;;;;11.33;8.03;;;;;;;4.43;73.14;99234.77;1754906;80;21674;-61
2022/03/02 20:14:10;;;;;;;9.13;7.90;;;;;;;4.42;73.09;99232.61;1754271;80;21145;-64
2022/03/02 20:16:37;;;;;;;10.80;7.58;;;;;;;4.40;73.04;99229.30;1746922;80;20955;-64
2022/03/02 20:19:10;;;;;;;11.48;8.85;;;;;;;4.39;73.09;99227.62;1754269;80;20974;-65
2022/03/02 20:21:36;;;;;;;8.85;7.95;;;;;;;4.39;73.08;99223.66;1764636;80;20939;-63
2022/03/02 20:24:10;;;;;;;10.43;7.75;;;;;;;4.40;73.07;99220.08;1762459;80;21015;-64
2022/03/02 20:26:37;;;;;;;8.35;7.53;;;;;;;4.41;73.11;99214.33;1759625;80;21136;-64
2022/03/02 20:29:06;;;;;;;10.38;7.60;;;;;;;4.40;73.14;99213.97;1748326;80;21001;-62
2022/03/02 20:31:33;;;;;;;10.80;7.67;;;;;;;4.41;73.04;99214.33;1750557;80;20912;-64
2022/03/02 20:34:00;;;;;;;9.50;6.85;;;;;;;4.39;73.01;99214.45;1754681;80;21711;-63
2022/03/02 20:36:27;;;;;;;8.28;7.40;;;;;;;4.38;73.16;99208.82;1745223;80;21524;-63
2022/03/02 20:38:54;;;;;;;9.53;7.17;;;;;;;4.45;73.29;99206.00;1767000;80;21818;-63
2022/03/02 20:41:23;;;;;;;7.25;6.50;;;;;;;4.54;72.76;99205.16;1765340;80;21027;-63
2022/03/02 20:43:51;;;;;;;8.10;6.62;;;;;;;4.58;72.66;99198.66;1760121;80;21547;-63
2022/03/02 20:46:18;;;;;;;8.43;7.00;;;;;;;4.57;72.50;99199.61;1761225;80;21857;-63
2022/03/02 20:48:45;;;;;;;9.88;7.28;;;;;;;4.56;72.44;99198.45;1764822;80;21438;-65
2022/03/02 20:51:12;;;;;;;11.95;7.35;;;;;;;4.55;72.49;99194.98;1744773;80;21827;-63
2022/03/02 20:53:40;;;;;;;8.85;6.72;;;;;;;4.54;72.45;99191.98;1743592;82;20991;-63
2022/03/02 20:56:08;;;;;;;8.28;6.90;;;;;;;4.55;72.44;99193.66;1765641;80;20991;-62
2022/03/02 20:58:39;;;;;;;9.15;6.75;;;;;;;4.56;72.34;99188.75;1744605;80;20915;-63
2022/03/02 21:01:05;;;;;;;8.60;6.62;;;;;;;4.57;72.33;99181.66;1764969;80;21485;-64
2022/03/02 21:03:33;;;;;;;9.15;7.22;;;;;;;4.58;72.20;99188.59;1754034;80;21125;-63
2022/03/02 21:06:01;;;;;;;9.08;7.37;;;;;;;4.56;72.14;99184.80;1751242;80;20873;-60
2022/03/02 21:08:28;;;;;;;9.70;7.10;;;;;;;4.55;72.19;99178.33;1765427;80;20964;-64
2022/03/02 21:11:00;;;;;;;11.38;7.22;;;;;;;4.56;72.17;99178.21;1754286;80;20904;-61
2022/03/02 21:13:26;;;;;;;9.88;7.67;;;;;;;4.55;72.20;99171.27;1766073;80;21481;-61
2022/03/02 21:15:56;;;;;;;9.38;7.22;;;;;;;4.54;72.25;99173.55;1753899;80;21438;-62
2022/03/02 21:18:23;;;;;;;10.78;8.40;;;;;;;4.54;72.28;99177.97;1769396;80;20970;-62
2022/03/02 21:20:50;;;;;;;9.18;7.47;;;;;;;4.54;72.09;99175.34;1761335;80;20959;-63
2022/03/02 21:23:17;;;;;;;10.68;7.50;;;;;;;4.52;72.14;99165.44;1755306;80;20986;-62
2022/03/02 21:25:46;;;;;;;10.03;7.85;;;;;;;4.51;72.19;99165.11;1768100;80;21525;-61
2022/03/02 21:28:14;;;;;;;9.78;6.90;;;;;;;4.51;72.24;99168.55;1760650;80;21825;-61
2022/03/02 21:30:41;;;;;;;9.00;7.20;;;;;;;4.44;72.42;99170.09;1762257;80;20963;-62
2022/03/02 21:33:08;;;;;;;11.08;8.40;;;;;;;4.40;72.77;99163.92;1747695;80;20892;-63
2022/03/02 21:35:37;;;;;;;11.00;8.55;;;;;;;4.38;72.98;99161.41;1763688;80;21058;-65
2022/03/02 21:38:05;;;;;;;12.25;7.97;;;;;;;4.38;73.09;99157.97;1756850;80;20967;-63
2022/03/02 21:40:33;;;;;;;9.80;8.00;;;;;;;4.38;73.17;99159.61;1741870;80;21109;-62
2022/03/02 21:43:00;;;;;;;9.40;7.60;;;;;;;4.40;73.12;99163.92;1741498;81;20947;-62
2022/03/02 21:45:27;;;;;;;11.30;8.30;;;;;;;4.38;73.10;99160.93;1765567;80;21004;-63
2022/03/02 21:47:55;;;;;;;9.70;7.42;;;;;;;4.40;73.05;99164.77;1754280;80;21493;-62
2022/03/02 21:50:25;;;;;;;7.45;6.65;;;;;;;4.41;73.05;99159.82;1768093;80;20943;-63
2022/03/02 21:52:52;;;;;;;9.03;7.80;;;;;;;4.38;73.14;99159.61;1768815;81;21159;-61
2022/03/02 21:55:20;;;;;;;9.10;7.58;;;;;;;4.36;73.23;99154.98;1759583;80;20948;-64
2022/03/02 21:57:47;;;;;;;8.90;7.08;;;;;;;4.36;73.23;99145.77;1767489;80;21168;-63
2022/03/02 22:00:14;;;;;;;7.15;6.45;;;;;;;4.36;73.22;99151.03;1745198;80;20999;-63
2022/03/02 22:02:42;;;;;;;10.55;7.75;;;;;;;4.36;73.21;99152.83;1765400;80;21067;-63
2022/03/02 22:05:09;;;;;;;11.57;7.03;;;;;;;4.36;73.29;99148.39;1767529;80;21349;-63
2022/03/02 22:07:41;;;;;;;10.53;7.95;;;;;;;4.38;73.34;99147.44;1743925;82;20940;-64
2022/03/02 22:10:09;;;;;;;7.85;6.65;;;;;;;4.39;73.38;99145.97;1746390;80;21487;-63
2022/03/02 22:12:36;;;;;;;11.73;7.78;;;;;;;4.40;73.40;99137.11;1744521;80;21120;-63
2022/03/02 22:15:06;;;;;;;8.13;7.22;;;;;;;4.43;73.30;99132.05;1748805;80;20991;-63
2022/03/02 22:17:35;;;;;;;10.45;7.15;;;;;;;4.43;73.31;99128.09;1756254;80;20907;-63
2022/03/02 22:20:05;;;;;;;8.88;7.50;;;;;;;4.44;73.34;99121.36;1757018;80;21517;-62
2022/03/02 22:22:33;;;;;;;9.93;7.47;;;;;;;4.46;73.43;99121.23;1754406;80;21490;-63
2022/03/02 22:25:01;;;;;;;11.10;6.95;;;;;;;4.46;73.48;99117.28;1751438;80;21029;-62
2022/03/02 22:27:30;;;;;;;10.85;7.80;;;;;;;4.46;73.54;99119.41;1757111;80;21549;-63
2022/03/02 22:29:58;;;;;;;10.75;7.15;;;;;;;4.47;73.61;99112.34;1743426;80;21247;-62
2022/03/02 22:32:32;;;;;;;9.03;7.12;;;;;;;4.48;73.61;99103.00;1769360;80;20948;-64
2022/03/02 22:35:01;;;;;;;11.45;7.85;;;;;;;4.49;73.59;99103.32;1739426;81;21478;-62
2022/03/02 22:37:28;;;;;;;11.75;8.13;;;;;;;4.48;73.51;99100.36;1749013;81;20935;-63
2022/03/02 22:40:02;;;;;;;9.75;8.28;;;;;;;4.51;73.46;99103.20;1756877;80;20872;-63
2022/03/02 22:42:31;;;;;;;9.40;7.90;;;;;;;4.50;73.55;99097.09;1691879;84;21165;-63
2022/03/02 22:44:58;;;;;;;9.95;8.48;;;;;;;4.49;73.57;99098.53;1747963;80;20936;-63
2022/03/02 22:47:25;;;;;;;9.85;7.25;;;;;;;4.50;73.67;99098.89;1748413;80;20935;-63
2022/03/02 22:49:52;;;;;;;9.38;8.03;;;;;;;4.51;73.79;99100.05;1756161;80;20900;-63
2022/03/02 22:52:21;;;;;;;11.90;7.85;;;;;;;4.52;73.95;99096.94;1744268;80;21557;-62
2022/03/02 22:54:48;;;;;;;10.63;6.92;;;;;;;4.42;74.29;99089.06;1771742;80;21171;-63
2022/03/02 22:57:15;;;;;;;10.20;8.20;;;;;;;4.41;74.40;99090.53;1769865;80;20927;-63
2022/03/02 22:59:42;;;;;;;11.00;8.13;;;;;;;4.39;74.53;99088.02;1771248;80;20979;-63
2022/03/02 23:02:12;;;;;;;10.30;7.42;;;;;;;4.42;74.50;99081.64;1748821;80;20952;-64
2022/03/02 23:15:50;;;;;;;12.37;9.50;;;;;;;4.43;74.68;99069.67;1763535;80;20903;-63
2022/03/02 23:18:17;;;;;;;10.13;8.73;;;;;;;4.48;74.69;99071.87;1769815;80;20990;-64
2022/03/02 23:20:44;;;;;;;9.98;8.95;;;;;;;4.50;74.66;99072.55;1768445;80;21195;-63
2022/03/02 23:23:11;;;;;;;11.80;9.55;;;;;;;4.51;74.56;99068.45;1766209;80;21029;-62
2022/03/02 23:25:38;;;;;;;11.65;10.00;;;;;;;4.51;74.51;99064.49;1771501;80;20967;-62
2022/03/02 23:28:05;;;;;;;10.48;8.78;;;;;;;4.53;74.47;99065.20;1770977;80;20999;-62
2022/03/02 23:30:33;;;;;;;10.03;9.00;;;;;;;4.53;74.41;99070.95;1749766;80;20994;-63
2022/03/02 23:33:01;;;;;;;10.18;8.65;;;;;;;4.50;74.54;99066.80;1704039;84;21217;-62
2022/03/02 23:35:28;;;;;;;11.90;8.65;;;;;;;4.51;74.44;99063.17;1722634;82;21494;-63
2022/03/02 23:37:55;;;;;;;10.38;8.85;;;;;;;4.48;74.53;99062.17;1683866;83;21007;-64
2022/03/02 23:40:22;;;;;;;9.70;7.62;;;;;;;4.52;74.45;99065.33;1685665;83;21026;-62
2022/03/02 23:42:49;;;;;;;9.95;8.50;;;;;;;4.51;74.60;99063.17;1690199;83;21453;-63
2022/03/02 23:45:16;;;;;;;13.15;8.83;;;;;;;4.52;74.75;99064.02;1689627;83;21138;-63
2022/03/02 23:47:43;;;;;;;9.65;8.65;;;;;;;4.53;74.88;99055.98;1696876;84;20947;-62
2022/03/02 23:50:14;;;;;;;9.73;8.40;;;;;;;4.56;74.86;99053.08;1731846;82;20896;-62
2022/03/02 23:52:45;;;;;;;11.15;9.08;;;;;;;4.57;74.83;99057.83;1753304;80;20995;-62
2022/03/02 23:55:12;;;;;;;10.23;8.05;;;;;;;4.55;74.88;99059.30;1759054;80;21492;-62
2022/03/02 23:57:41;;;;;;;10.82;8.00;;;;;;;4.55;75.07;99052.72;1744436;82;21868;-62
